Time;durP1;ratioP1;P1;durP2;ratioP2;P2;SDS_P1;SDS_P2;PMS_P1;PMS_P2;Temp;Humidity;BMP_temperature;BMP_pressure;BME280_temperature;BME280_humidity;BME280_pressure;Samples;Min_cycle;Max_cycle;Signal;HPM_P1;HPM_P2
2023/04/26 00:02:22;;;;;;;;;;;7.90;89.60;;;;;;6131097;23;19908;-96
2023/04/26 00:04:54;;;;;;;;;;;7.90;89.40;;;;;;6158026;23;19916;-96
2023/04/26 00:07:23;;;;;;;;;;;7.90;89.60;;;;;;6157406;23;19905;-95
2023/04/26 00:09:51;;;;;;;;;;;7.90;89.60;;;;;;6131048;23;19905;-96
2023/04/26 00:12:17;;;;;;;;;;;8.00;89.80;;;;;;6131070;23;19904;-96
2023/04/26 00:14:42;;;;;;;;;;;8.00;89.50;;;;;;6157545;23;19987;-96
2023/04/26 00:17:08;;;;;;;;;;;7.90;89.80;;;;;;6157240;23;19940;-95
2023/04/26 00:19:34;;;;;;;;;;;7.90;90.20;;;;;;6157849;23;19940;-95
2023/04/26 00:21:59;;;;;;;;;;;7.90;90.90;;;;;;6131198;23;20023;-95
2023/04/26 00:24:25;;;;;;;;;;;7.90;91.40;;;;;;6157854;23;19911;-96
2023/04/26 00:26:54;;;;;;;;;;;8.00;91.90;;;;;;6130947;23;19905;-95
2023/04/26 00:29:20;;;;;;;;;;;8.20;92.50;;;;;;6157408;23;19909;-95
2023/04/26 00:31:45;;;;;;;;;;;8.20;92.50;;;;;;6157495;23;19904;-95
2023/04/26 00:34:11;;;;;;;;;;;8.20;92.00;;;;;;6130437;23;19912;-95
2023/04/26 00:36:37;;;;;;;;;;;8.20;92.00;;;;;;6130878;23;19932;-94
2023/04/26 00:39:02;;;;;;;;;;;8.40;91.70;;;;;;6156673;23;19923;-96
2023/04/26 00:41:28;;;;;;;;;;;8.40;91.20;;;;;;6156951;23;19913;-95
2023/04/26 00:43:54;;;;;;;;;;;8.40;90.50;;;;;;6130864;23;19927;-96
2023/04/26 00:46:19;;;;;;;;;;;8.20;89.30;;;;;;6130915;23;19912;-95
2023/04/26 00:48:45;;;;;;;;;;;8.10;88.80;;;;;;6130932;23;19904;-96
2023/04/26 00:51:11;;;;;;;;;;;7.90;89.70;;;;;;6157353;23;20230;-95
2023/04/26 00:53:37;;;;;;;;;;;7.90;90.60;;;;;;6130907;23;19979;-96
2023/04/26 00:56:06;;;;;;;;;;;7.80;91.00;;;;;;6157213;23;20321;-96
2023/04/26 00:58:31;;;;;;;;;;;7.80;91.30;;;;;;6130681;23;19908;-95
2023/04/26 01:00:57;;;;;;;;;;;7.80;91.40;;;;;;6157674;23;19904;-96
2023/04/26 01:03:23;;;;;;;;;;;7.80;91.80;;;;;;6130783;23;19987;-96
2023/04/26 01:05:48;;;;;;;;;;;7.80;91.70;;;;;;6157097;23;19987;-96
2023/04/26 01:08:16;;;;;;;;;;;7.80;91.60;;;;;;6130665;23;19912;-96
2023/04/26 01:10:42;;;;;;;;;;;7.70;91.40;;;;;;6157499;23;19912;-96
2023/04/26 01:13:07;;;;;;;;;;;7.70;91.20;;;;;;6157077;23;19909;-96
2023/04/26 01:15:34;;;;;;;;;;;7.80;91.30;;;;;;6130610;23;19911;-96
2023/04/26 01:18:00;;;;;;;;;;;7.80;91.20;;;;;;6130645;23;19916;-96
2023/04/26 01:20:26;;;;;;;;;;;7.70;90.90;;;;;;6157391;23;19904;-95
2023/04/26 01:22:51;;;;;;;;;;;7.60;91.00;;;;;;6156637;23;20242;-95
2023/04/26 01:25:17;;;;;;;;;;;7.60;90.80;;;;;;6156995;23;19912;-96
2023/04/26 01:27:42;;;;;;;;;;;7.60;90.90;;;;;;6156964;23;19905;-95
2023/04/26 01:30:09;;;;;;;;;;;7.60;90.80;;;;;;6130543;23;19908;-95
2023/04/26 01:32:34;;;;;;;;;;;7.60;90.80;;;;;;6130388;23;19908;-95
2023/04/26 01:35:00;;;;;;;;;;;7.50;90.70;;;;;;6156998;23;20292;-94
2023/04/26 01:37:26;;;;;;;;;;;7.50;90.60;;;;;;6132436;23;19951;-95
2023/04/26 01:39:51;;;;;;;;;;;7.50;90.40;;;;;;6156652;23;19905;-95
2023/04/26 01:42:17;;;;;;;;;;;7.40;90.70;;;;;;6156901;23;20239;-96
2023/04/26 01:44:42;;;;;;;;;;;7.50;91.20;;;;;;6156547;23;19905;-96
2023/04/26 01:47:08;;;;;;;;;;;7.50;91.10;;;;;;6156915;23;19909;-96
2023/04/26 01:49:34;;;;;;;;;;;7.50;90.90;;;;;;6156501;23;19904;-95
2023/04/26 01:52:00;;;;;;;;;;;7.50;91.20;;;;;;6156895;23;19905;-95
2023/04/26 01:54:25;;;;;;;;;;;7.50;91.10;;;;;;6156615;23;19912;-96
2023/04/26 01:56:51;;;;;;;;;;;7.40;91.10;;;;;;6156841;23;19905;-96
2023/04/26 01:59:16;;;;;;;;;;;7.40;90.90;;;;;;6130121;23;20282;-95
2023/04/26 02:01:42;;;;;;;;;;;7.40;90.60;;;;;;6130293;23;20234;-95
2023/04/26 02:04:08;;;;;;;;;;;7.30;90.20;;;;;;6157183;23;19905;-95
2023/04/26 02:06:34;;;;;;;;;;;7.20;90.10;;;;;;6156455;23;20326;-95
2023/04/26 02:08:59;;;;;;;;;;;7.10;90.20;;;;;;6130329;23;20234;-95
2023/04/26 02:11:25;;;;;;;;;;;7.20;90.40;;;;;;6156452;23;19936;-95
2023/04/26 02:13:52;;;;;;;;;;;7.20;90.60;;;;;;6156706;23;19928;-95
2023/04/26 02:16:17;;;;;;;;;;;7.20;90.60;;;;;;6130380;23;19983;-95
2023/04/26 02:18:43;;;;;;;;;;;7.30;90.70;;;;;;6156715;23;19962;-95
2023/04/26 02:21:10;;;;;;;;;;;7.30;90.50;;;;;;6156600;23;20250;-96
2023/04/26 02:23:35;;;;;;;;;;;7.30;90.10;;;;;;6157090;23;19909;-95
2023/04/26 02:26:02;;;;;;;;;;;7.10;89.80;;;;;;6156692;23;19912;-95
2023/04/26 02:28:27;;;;;;;;;;;7.00;90.20;;;;;;6156776;23;19911;-94
2023/04/26 02:30:55;;;;;;;;;;;6.90;90.90;;;;;;6156405;23;19983;-95
2023/04/26 02:33:21;;;;;;;;;;;6.80;91.10;;;;;;6156590;23;19951;-95
2023/04/26 02:35:47;;;;;;;;;;;6.90;91.40;;;;;;6156280;23;20020;-95
2023/04/26 02:38:12;;;;;;;;;;;6.90;91.60;;;;;;6156197;23;19952;-95
2023/04/26 02:40:38;;;;;;;;;;;7.00;91.80;;;;;;6156337;23;19909;-95
2023/04/26 02:43:03;;;;;;;;;;;7.10;91.70;;;;;;6156635;23;19904;-95
2023/04/26 02:45:29;;;;;;;;;;;7.10;91.50;;;;;;6156320;23;19905;-96
2023/04/26 02:47:55;;;;;;;;;;;7.10;91.10;;;;;;6130172;23;20243;-95
2023/04/26 02:50:20;;;;;;;;;;;7.00;90.70;;;;;;6156692;23;19905;-94
2023/04/26 02:52:46;;;;;;;;;;;7.00;90.40;;;;;;6156363;23;19905;-96
2023/04/26 02:55:12;;;;;;;;;;;6.70;89.90;;;;;;6156248;23;19904;-95
2023/04/26 02:57:37;;;;;;;;;;;6.60;90.20;;;;;;6157987;23;19983;-96
2023/04/26 03:00:04;;;;;;;;;;;6.60;90.30;;;;;;6157869;23;20271;-95
2023/04/26 03:02:30;;;;;;;;;;;6.70;90.50;;;;;;6157894;23;19905;-95
2023/04/26 03:04:55;;;;;;;;;;;6.50;90.80;;;;;;6131739;23;20282;-95
2023/04/26 03:07:21;;;;;;;;;;;6.40;91.00;;;;;;6158191;23;19928;-95
2023/04/26 03:09:47;;;;;;;;;;;6.40;91.20;;;;;;6157827;23;20321;-95
2023/04/26 03:12:12;;;;;;;;;;;6.40;91.30;;;;;;6131642;23;20300;-96
2023/04/26 03:14:38;;;;;;;;;;;6.40;91.20;;;;;;6158140;23;19913;-96
2023/04/26 03:17:03;;;;;;;;;;;6.40;90.90;;;;;;6157866;23;19905;-95
2023/04/26 03:19:29;;;;;;;;;;;6.40;90.90;;;;;;6131628;23;19927;-95
2023/04/26 03:21:55;;;;;;;;;;;6.30;90.50;;;;;;6157666;23;20243;-95
2023/04/26 03:24:20;;;;;;;;;;;6.40;91.00;;;;;;6131510;23;20238;-95
2023/04/26 03:26:46;;;;;;;;;;;6.40;90.80;;;;;;6131512;23;20274;-95
2023/04/26 03:29:12;;;;;;;;;;;6.40;90.80;;;;;;6157914;23;20370;-95
2023/04/26 03:31:37;;;;;;;;;;;6.60;91.00;;;;;;6131556;23;20275;-95
2023/04/26 03:34:03;;;;;;;;;;;6.70;91.10;;;;;;6157535;23;19904;-95
2023/04/26 03:36:29;;;;;;;;;;;6.80;91.00;;;;;;6131541;23;19931;-94
2023/04/26 03:38:55;;;;;;;;;;;6.70;90.00;;;;;;6157198;23;20350;-94
2023/04/26 03:41:21;;;;;;;;;;;6.80;90.00;;;;;;6131265;23;19916;-95
2023/04/26 03:43:47;;;;;;;;;;;6.70;89.30;;;;;;6131389;23;19904;-94
2023/04/26 03:46:12;;;;;;;;;;;6.80;89.30;;;;;;6157888;23;19912;-95
2023/04/26 03:48:38;;;;;;;;;;;6.80;89.00;;;;;;6131403;23;20212;-96
2023/04/26 03:51:05;;;;;;;;;;;6.80;89.00;;;;;;6158158;23;19912;-95
2023/04/26 03:53:30;;;;;;;;;;;6.80;88.90;;;;;;6157619;23;19904;-95
2023/04/26 03:55:56;;;;;;;;;;;6.70;88.80;;;;;;6157889;23;19927;-95
2023/04/26 03:58:22;;;;;;;;;;;6.60;88.90;;;;;;6131237;23;19909;-95
2023/04/26 04:00:48;;;;;;;;;;;6.50;88.80;;;;;;6158034;23;20288;-95
2023/04/26 04:03:13;;;;;;;;;;;6.50;88.50;;;;;;6131297;23;19984;-96
2023/04/26 04:05:39;;;;;;;;;;;6.40;88.40;;;;;;6157554;23;20282;-94
2023/04/26 04:08:04;;;;;;;;;;;6.40;88.60;;;;;;6130671;23;19905;-95
2023/04/26 04:10:30;;;;;;;;;;;6.40;88.80;;;;;;6157722;23;20258;-95
2023/04/26 04:12:55;;;;;;;;;;;6.10;88.40;;;;;;6131549;23;19912;-95
2023/04/26 04:15:22;;;;;;;;;;;6.20;88.90;;;;;;6157660;23;19905;-95
2023/04/26 04:17:47;;;;;;;;;;;6.00;89.10;;;;;;6157162;23;20315;-95
2023/04/26 04:20:13;;;;;;;;;;;6.00;89.70;;;;;;6131181;23;19911;-94
2023/04/26 04:22:38;;;;;;;;;;;5.90;90.70;;;;;;6157611;23;20368;-96
2023/04/26 04:25:05;;;;;;;;;;;6.00;90.60;;;;;;6131012;23;19904;-95
2023/04/26 04:27:31;;;;;;;;;;;5.80;89.20;;;;;;6157535;23;19971;-94
2023/04/26 04:29:56;;;;;;;;;;;5.80;90.00;;;;;;6131077;23;20270;-95
2023/04/26 04:32:22;;;;;;;;;;;5.80;90.20;;;;;;6156985;23;20242;-94
2023/04/26 04:34:49;;;;;;;;;;;5.80;90.60;;;;;;6130901;23;19904;-95
2023/04/26 04:37:14;;;;;;;;;;;5.90;90.50;;;;;;6130721;23;19917;-95
2023/04/26 04:39:40;;;;;;;;;;;5.90;90.30;;;;;;6157050;23;20223;-95
2023/04/26 04:42:05;;;;;;;;;;;5.90;90.20;;;;;;6156954;23;19904;-94
2023/04/26 04:44:31;;;;;;;;;;;5.90;90.40;;;;;;6157686;23;20307;-93
2023/04/26 04:46:57;;;;;;;;;;;5.90;90.40;;;;;;6156940;23;19998;-94
2023/04/26 04:49:23;;;;;;;;;;;6.00;90.80;;;;;;6157618;23;19909;-94
2023/04/26 04:51:49;;;;;;;;;;;6.10;90.70;;;;;;6156830;23;20346;-94
2023/04/26 04:54:15;;;;;;;;;;;6.20;90.70;;;;;;6157218;23;19908;-94
2023/04/26 04:56:41;;;;;;;;;;;6.20;90.60;;;;;;6156849;23;19939;-95
2023/04/26 04:59:07;;;;;;;;;;;6.30;90.50;;;;;;6156626;23;19909;-94
2023/04/26 05:01:33;;;;;;;;;;;6.40;90.50;;;;;;6156794;23;19905;-96
2023/04/26 05:03:59;;;;;;;;;;;6.40;90.60;;;;;;6157519;23;20358;-96
2023/04/26 05:06:26;;;;;;;;;;;6.30;90.70;;;;;;6156727;23;19904;-95
2023/04/26 05:08:52;;;;;;;;;;;6.40;91.50;;;;;;6157164;23;19904;-95
2023/04/26 05:11:17;;;;;;;;;;;6.50;91.00;;;;;;6156817;23;19909;-95
2023/04/26 05:13:43;;;;;;;;;;;6.60;90.90;;;;;;6130644;23;19932;-95
2023/04/26 05:16:09;;;;;;;;;;;6.70;90.70;;;;;;6130512;23;19981;-95
2023/04/26 05:18:34;;;;;;;;;;;6.70;90.30;;;;;;6156363;23;19959;-94
2023/04/26 05:21:00;;;;;;;;;;;6.80;90.60;;;;;;6130533;23;19947;-95
2023/04/26 05:23:25;;;;;;;;;;;6.70;90.20;;;;;;6156811;23;19905;-95
2023/04/26 05:25:51;;;;;;;;;;;6.90;90.40;;;;;;6156381;23;19955;-95
2023/04/26 05:28:16;;;;;;;;;;;7.00;91.20;;;;;;6156616;23;19913;-94
2023/04/26 05:30:42;;;;;;;;;;;7.10;91.10;;;;;;6156490;23;19984;-94
2023/04/26 05:33:08;;;;;;;;;;;7.30;90.90;;;;;;6156226;23;19957;-96
2023/04/26 05:35:34;;;;;;;;;;;7.40;90.60;;;;;;6156799;23;19905;-96
2023/04/26 05:37:59;;;;;;;;;;;7.50;90.20;;;;;;6156476;23;19920;-95
2023/04/26 05:40:25;;;;;;;;;;;7.70;90.10;;;;;;6130385;23;20299;-96
2023/04/26 05:42:51;;;;;;;;;;;7.80;90.00;;;;;;6156976;23;19904;-95
2023/04/26 05:45:17;;;;;;;;;;;7.90;89.60;;;;;;6157700;23;19904;-95
2023/04/26 05:47:42;;;;;;;;;;;8.10;89.70;;;;;;6130258;23;19904;-95
2023/04/26 05:50:08;;;;;;;;;;;8.40;89.70;;;;;;6130321;23;19911;-95
2023/04/26 05:52:34;;;;;;;;;;;8.50;90.00;;;;;;6130070;23;19988;-95
2023/04/26 05:55:03;;;;;;;;;;;8.80;90.30;;;;;;6156737;23;19935;-96
2023/04/26 05:57:28;;;;;;;;;;;9.00;90.20;;;;;;6130065;23;19932;-96
2023/04/26 05:59:54;;;;;;;;;;;9.10;90.30;;;;;;6156676;23;19908;-96
2023/04/26 06:02:19;;;;;;;;;;;9.30;89.90;;;;;;6156266;23;20242;-96
2023/04/26 06:04:46;;;;;;;;;;;9.30;89.50;;;;;;6156595;23;19941;-96
2023/04/26 06:07:11;;;;;;;;;;;9.50;88.30;;;;;;6156459;23;19904;-96
2023/04/26 06:09:37;;;;;;;;;;;9.70;87.70;;;;;;6130587;23;19928;-96
2023/04/26 06:12:03;;;;;;;;;;;9.90;87.90;;;;;;6130529;23;19905;-96
2023/04/26 06:14:28;;;;;;;;;;;9.90;87.60;;;;;;6130938;23;19952;-96
2023/04/26 06:16:54;;;;;;;;;;;10.00;87.30;;;;;;6131275;23;19916;-95
2023/04/26 06:19:20;;;;;;;;;;;10.10;86.80;;;;;;6156259;23;19912;-96
2023/04/26 06:21:47;;;;;;;;;;;10.30;86.10;;;;;;6130248;23;19909;-95
2023/04/26 06:24:13;;;;;;;;;;;10.40;84.80;;;;;;6156255;23;19932;-95
2023/04/26 06:26:38;;;;;;;;;;;10.60;84.80;;;;;;6156181;23;19912;-93
2023/04/26 06:29:04;;;;;;;;;;;10.70;84.00;;;;;;6130123;23;20331;-93
2023/04/26 06:31:30;;;;;;;;;;;10.80;83.70;;;;;;6130888;23;19940;-93
2023/04/26 06:33:56;;;;;;;;;;;10.90;83.00;;;;;;6131882;23;19940;-94
2023/04/26 06:36:21;;;;;;;;;;;11.00;82.40;;;;;;6158672;23;19937;-96
2023/04/26 06:38:47;;;;;;;;;;;11.10;82.50;;;;;;6144014;23;19928;-95
2023/04/26 06:41:13;;;;;;;;;;;11.20;81.70;;;;;;6128474;23;19909;-94
2023/04/26 06:43:38;;;;;;;;;;;11.30;81.30;;;;;;6128641;23;20351;-94
2023/04/26 06:46:04;;;;;;;;;;;11.40;81.40;;;;;;6128889;23;19984;-94
2023/04/26 06:48:29;;;;;;;;;;;11.60;80.40;;;;;;6126998;23;20292;-94
2023/04/26 06:50:55;;;;;;;;;;;11.80;80.10;;;;;;6128356;23;20217;-95
2023/04/26 06:53:21;;;;;;;;;;;11.90;78.70;;;;;;6128441;23;19929;-93
2023/04/26 06:55:46;;;;;;;;;;;12.00;78.30;;;;;;6128340;23;20338;-93
2023/04/26 06:58:12;;;;;;;;;;;12.10;75.80;;;;;;6128261;23;20327;-94
2023/04/26 07:00:37;;;;;;;;;;;12.20;75.90;;;;;;6128219;23;20354;-93
2023/04/26 07:03:03;;;;;;;;;;;12.30;73.20;;;;;;6128332;23;19912;-93
2023/04/26 07:05:28;;;;;;;;;;;12.30;73.10;;;;;;6126685;23;19916;-93
2023/04/26 07:07:54;;;;;;;;;;;12.40;71.60;;;;;;6128489;23;19905;-93
2023/04/26 07:10:20;;;;;;;;;;;12.40;71.40;;;;;;6128449;23;19905;-93
2023/04/26 07:12:45;;;;;;;;;;;12.50;71.90;;;;;;6128319;23;20004;-93
2023/04/26 07:15:11;;;;;;;;;;;12.50;71.50;;;;;;6128199;23;19927;-93
2023/04/26 07:17:37;;;;;;;;;;;12.60;72.00;;;;;;6127964;23;20393;-94
2023/04/26 07:20:03;;;;;;;;;;;12.80;71.70;;;;;;6128173;23;19944;-93
2023/04/26 07:22:28;;;;;;;;;;;12.90;69.60;;;;;;6128057;23;20276;-94
2023/04/26 07:24:54;;;;;;;;;;;12.90;69.60;;;;;;6126621;23;20266;-95
2023/04/26 07:27:19;;;;;;;;;;;13.10;70.40;;;;;;6128610;23;19936;-94
2023/04/26 07:29:45;;;;;;;;;;;13.10;70.00;;;;;;6128141;23;19905;-93
2023/04/26 07:32:11;;;;;;;;;;;13.30;69.20;;;;;;6127770;23;19988;-93
2023/04/26 07:34:37;;;;;;;;;;;13.30;68.80;;;;;;6128071;23;19905;-93
2023/04/26 07:37:03;;;;;;;;;;;13.30;70.00;;;;;;6129309;23;19905;-93
2023/04/26 07:39:29;;;;;;;;;;;13.30;67.90;;;;;;6157266;23;20223;-95
2023/04/26 07:41:54;;;;;;;;;;;13.40;66.70;;;;;;6131080;23;19928;-94
2023/04/26 07:44:21;;;;;;;;;;;13.40;67.50;;;;;;6157248;23;19904;-92
2023/04/26 07:46:46;;;;;;;;;;;13.40;66.80;;;;;;6157635;23;19904;-92
2023/04/26 07:49:12;;;;;;;;;;;13.30;67.10;;;;;;6157262;23;19971;-93
2023/04/26 07:51:38;;;;;;;;;;;13.40;68.00;;;;;;6157439;23;20238;-95
2023/04/26 07:54:03;;;;;;;;;;;13.40;66.30;;;;;;6157599;23;19915;-96
2023/04/26 07:56:29;;;;;;;;;;;13.50;66.20;;;;;;6132188;23;19924;-96
2023/04/26 07:58:55;;;;;;;;;;;13.60;66.00;;;;;;6132598;23;19909;-96
2023/04/26 08:01:20;;;;;;;;;;;13.80;65.40;;;;;;6132058;23;19908;-96
2023/04/26 08:03:47;;;;;;;;;;;13.90;65.20;;;;;;6157339;23;20459;-95
2023/04/26 08:06:13;;;;;;;;;;;14.00;64.80;;;;;;6157367;23;19905;-95
2023/04/26 08:08:43;;;;;;;;;;;14.10;64.60;;;;;;6157989;23;20307;-95
2023/04/26 08:11:09;;;;;;;;;;;14.10;64.90;;;;;;6157629;23;19908;-95
2023/04/26 08:13:35;;;;;;;;;;;14.20;65.30;;;;;;6157242;23;19905;-94
2023/04/26 08:16:00;;;;;;;;;;;14.30;64.40;;;;;;6157488;23;20239;-95
2023/04/26 08:18:26;;;;;;;;;;;14.40;63.80;;;;;;6157091;23;19936;-95
2023/04/26 08:20:54;;;;;;;;;;;14.50;65.10;;;;;;6131060;23;20345;-94
2023/04/26 08:23:20;;;;;;;;;;;14.50;67.80;;;;;;6157112;23;19913;-96
2023/04/26 08:25:45;;;;;;;;;;;14.50;68.30;;;;;;6158720;23;19905;-96
2023/04/26 08:28:13;;;;;;;;;;;14.60;67.60;;;;;;6131216;23;19905;-95
2023/04/26 08:30:39;;;;;;;;;;;14.70;68.40;;;;;;6130816;23;20279;-93
2023/04/26 08:33:05;;;;;;;;;;;14.80;68.90;;;;;;6157243;23;19904;-93
2023/04/26 08:35:31;;;;;;;;;;;14.90;69.10;;;;;;6157024;23;19912;-93
2023/04/26 08:37:56;;;;;;;;;;;14.90;68.90;;;;;;6125556;23;19921;-94
2023/04/26 08:40:23;;;;;;;;;;;14.80;67.50;;;;;;6127315;23;19905;-94
2023/04/26 08:42:51;;;;;;;;;;;14.70;67.00;;;;;;6127441;23;19905;-95
2023/04/26 08:45:17;;;;;;;;;;;14.80;67.90;;;;;;6127365;23;19905;-94
2023/04/26 08:47:49;;;;;;;;;;;14.90;66.80;;;;;;6127231;23;19932;-95
2023/04/26 08:50:19;;;;;;;;;;;14.90;67.90;;;;;;6131651;23;19906;-96
2023/04/26 08:52:46;;;;;;;;;;;15.00;69.60;;;;;;6128060;23;19932;-96
2023/04/26 08:55:13;;;;;;;;;;;15.10;69.90;;;;;;6127003;23;19905;-96
2023/04/26 08:57:42;;;;;;;;;;;15.10;69.00;;;;;;6129258;23;19912;-95
2023/04/26 09:00:09;;;;;;;;;;;15.20;69.60;;;;;;6126346;23;19905;-95
2023/04/26 09:02:35;;;;;;;;;;;15.20;69.30;;;;;;6127216;23;19996;-96
2023/04/26 09:05:01;;;;;;;;;;;15.30;68.50;;;;;;6127541;23;19904;-96
2023/04/26 09:07:30;;;;;;;;;;;15.50;66.50;;;;;;6127570;23;20334;-96
2023/04/26 09:09:57;;;;;;;;;;;15.50;65.70;;;;;;6127239;23;19905;-96
2023/04/26 09:12:22;;;;;;;;;;;15.60;69.20;;;;;;6125663;23;19905;-96
2023/04/26 09:14:48;;;;;;;;;;;15.60;69.00;;;;;;6125622;23;19975;-96
2023/04/26 09:17:23;;;;;;;;;;;15.60;66.90;;;;;;6127913;23;19905;-96
2023/04/26 09:19:49;;;;;;;;;;;15.70;67.70;;;;;;6125859;23;19956;-96
2023/04/26 09:22:26;;;;;;;;;;;15.70;67.50;;;;;;6128514;23;19905;-96
2023/04/26 09:24:52;;;;;;;;;;;15.70;67.70;;;;;;6127394;23;19905;-96
2023/04/26 09:27:18;;;;;;;;;;;15.70;67.60;;;;;;6128492;23;20239;-96
2023/04/26 09:30:02;;;;;;;;;;;15.70;69.10;;;;;;6127322;23;19905;-96
2023/04/26 09:32:42;;;;;;;;;;;15.80;69.60;;;;;;6125227;23;19909;-96
2023/04/26 09:35:07;;;;;;;;;;;15.90;69.40;;;;;;6125387;23;19956;-94
2023/04/26 09:37:33;;;;;;;;;;;16.00;69.10;;;;;;6134498;23;19920;-96
2023/04/26 09:39:59;;;;;;;;;;;16.00;65.50;;;;;;6156428;23;19912;-96
2023/04/26 09:42:24;;;;;;;;;;;16.00;64.70;;;;;;6130718;23;19905;-95
2023/04/26 09:44:50;;;;;;;;;;;16.10;66.70;;;;;;6130811;23;19909;-96
2023/04/26 09:47:16;;;;;;;;;;;16.20;66.90;;;;;;6158126;23;19905;-96
2023/04/26 09:49:50;;;;;;;;;;;16.20;64.40;;;;;;6131421;23;19927;-96
2023/04/26 09:52:19;;;;;;;;;;;16.30;64.50;;;;;;6133383;23;20323;-96
2023/04/26 09:54:46;;;;;;;;;;;16.40;65.40;;;;;;6134858;23;19911;-96
2023/04/26 09:57:13;;;;;;;;;;;16.60;67.50;;;;;;6134675;23;19905;-96
2023/04/26 09:59:40;;;;;;;;;;;16.60;63.00;;;;;;6134514;23;19915;-96
2023/04/26 10:02:22;;;;;;;;;;;16.70;64.60;;;;;;6133334;23;19905;-96
2023/04/26 10:04:49;;;;;;;;;;;16.70;64.90;;;;;;6159084;23;19905;-95
2023/04/26 10:07:15;;;;;;;;;;;16.80;63.00;;;;;;6160849;23;20008;-96
2023/04/26 10:09:41;;;;;;;;;;;16.80;65.60;;;;;;6134096;23;20238;-96
2023/04/26 10:12:10;;;;;;;;;;;16.80;59.90;;;;;;6133493;23;19905;-96
2023/04/26 10:14:36;;;;;;;;;;;16.80;61.50;;;;;;6159381;23;19912;-96
2023/04/26 10:17:02;;;;;;;;;;;16.80;64.80;;;;;;6133953;23;19904;-96
2023/04/26 10:19:28;;;;;;;;;;;16.90;65.80;;;;;;6133300;23;19915;-96
2023/04/26 10:21:57;;;;;;;;;;;16.90;64.80;;;;;;6133384;23;19905;-96
2023/04/26 10:24:23;;;;;;;;;;;16.90;64.20;;;;;;6134450;23;19905;-96
2023/04/26 10:26:53;;;;;;;;;;;17.00;64.90;;;;;;6162045;23;19905;-96
2023/04/26 10:29:23;;;;;;;;;;;17.00;60.40;;;;;;6161815;23;19936;-96
2023/04/26 10:32:00;;;;;;;;;;;16.90;60.90;;;;;;6135032;23;19905;-96
2023/04/26 10:34:27;;;;;;;;;;;16.90;61.90;;;;;;6137296;23;20246;-96
2023/04/26 10:37:09;;;;;;;;;;;16.90;60.70;;;;;;6137132;23;19908;-96
2023/04/26 10:39:35;;;;;;;;;;;17.00;61.90;;;;;;6133141;23;19956;-96
2023/04/26 10:42:23;;;;;;;;;;;17.20;61.80;;;;;;6133490;23;20319;-96
2023/04/26 10:44:50;;;;;;;;;;;17.20;61.60;;;;;;6134023;23;19905;-96
2023/04/26 10:47:35;;;;;;;;;;;17.40;65.00;;;;;;6135318;23;19984;-96
2023/04/26 10:50:08;;;;;;;;;;;17.50;63.30;;;;;;6137018;23;19905;-96
2023/04/26 10:52:54;;;;;;;;;;;17.60;60.20;;;;;;6137827;23;19962;-96
2023/04/26 10:55:41;;;;;;;;;;;17.50;61.00;;;;;;6135740;23;19916;-96
2023/04/26 10:58:26;;;;;;;;;;;17.50;62.90;;;;;;6140239;23;20390;-96
2023/04/26 11:01:12;;;;;;;;;;;17.50;61.50;;;;;;6140477;23;19913;-96
2023/04/26 11:03:39;;;;;;;;;;;17.50;60.30;;;;;;6137367;23;19987;-96
2023/04/26 11:06:06;;;;;;;;;;;17.60;63.20;;;;;;6137564;23;20366;-96
2023/04/26 11:08:35;;;;;;;;;;;17.60;58.60;;;;;;6135587;23;20243;-96
2023/04/26 11:11:01;;;;;;;;;;;17.80;63.40;;;;;;6138087;23;19905;-96
2023/04/26 11:13:30;;;;;;;;;;;17.90;59.30;;;;;;6133547;23;19987;-96
2023/04/26 11:16:01;;;;;;;;;;;17.90;64.70;;;;;;6134887;23;20263;-96
2023/04/26 11:18:27;;;;;;;;;;;17.80;59.10;;;;;;6135324;23;20331;-96
2023/04/26 11:20:53;;;;;;;;;;;17.70;59.00;;;;;;6136033;23;19912;-96
2023/04/26 11:23:18;;;;;;;;;;;17.60;61.50;;;;;;6134493;23;19920;-96
2023/04/26 11:25:44;;;;;;;;;;;17.90;66.50;;;;;;6134392;23;19971;-96
2023/04/26 11:28:11;;;;;;;;;;;17.90;61.20;;;;;;6133050;23;20319;-96
2023/04/26 11:30:36;;;;;;;;;;;18.00;60.30;;;;;;6134975;23;20377;-96
2023/04/26 11:33:03;;;;;;;;;;;18.20;64.10;;;;;;6136427;23;19912;-96
2023/04/26 11:35:32;;;;;;;;;;;18.30;60.40;;;;;;6135448;23;19909;-96
2023/04/26 11:38:04;;;;;;;;;;;18.30;61.30;;;;;;6156297;23;19924;-96
2023/04/26 11:40:31;;;;;;;;;;;18.50;62.10;;;;;;6150123;23;19909;-96
2023/04/26 11:43:01;;;;;;;;;;;18.80;58.90;;;;;;6144170;23;19949;-96
2023/04/26 11:45:27;;;;;;;;;;;19.00;57.50;;;;;;6146073;23;19928;-96
2023/04/26 11:47:53;;;;;;;;;;;19.30;59.90;;;;;;6150728;23;19912;-96
2023/04/26 11:50:19;;;;;;;;;;;19.20;60.00;;;;;;6145694;23;19928;-96
2023/04/26 11:52:46;;;;;;;;;;;19.30;57.20;;;;;;6149106;23;20315;-96
2023/04/26 11:55:12;;;;;;;;;;;19.30;54.70;;;;;;6150614;23;19904;-96
2023/04/26 11:57:37;;;;;;;;;;;19.30;53.70;;;;;;6148817;23;20267;-96
2023/04/26 12:00:10;;;;;;;;;;;19.20;55.50;;;;;;6174815;23;19908;-96
2023/04/26 12:02:43;;;;;;;;;;;19.40;60.70;;;;;;6149739;23;19955;-96
2023/04/26 12:05:21;;;;;;;;;;;19.60;59.80;;;;;;6151781;23;19904;-96
2023/04/26 12:07:51;;;;;;;;;;;19.80;55.00;;;;;;6149398;23;19955;-96
2023/04/26 12:10:18;;;;;;;;;;;19.90;55.50;;;;;;6175781;23;19909;-96
2023/04/26 12:12:48;;;;;;;;;;;20.00;54.80;;;;;;6150168;23;19928;-96
2023/04/26 12:15:14;;;;;;;;;;;20.20;54.60;;;;;;6173532;23;20318;-96
2023/04/26 12:17:40;;;;;;;;;;;20.20;55.70;;;;;;6147559;23;19904;-96
2023/04/26 12:20:12;;;;;;;;;;;20.20;54.60;;;;;;6145461;23;19979;-96
2023/04/26 12:22:37;;;;;;;;;;;20.20;54.20;;;;;;6166548;23;19911;-96
2023/04/26 12:25:08;;;;;;;;;;;20.50;53.50;;;;;;6173735;23;19905;-96
2023/04/26 12:27:34;;;;;;;;;;;20.30;56.60;;;;;;6146372;23;20319;-96
2023/04/26 12:30:00;;;;;;;;;;;20.30;51.70;;;;;;6138014;23;19959;-96
2023/04/26 12:32:25;;;;;;;;;;;20.30;53.10;;;;;;6135710;23;19911;-96
2023/04/26 12:34:51;;;;;;;;;;;20.40;51.50;;;;;;6157278;23;19912;-96
2023/04/26 12:37:17;;;;;;;;;;;20.60;51.60;;;;;;6130996;23;20888;-96
2023/04/26 12:39:43;;;;;;;;;;;20.90;48.90;;;;;;6157099;23;20007;-96
2023/04/26 12:42:08;;;;;;;;;;;20.90;51.30;;;;;;6156942;23;19979;-93
2023/04/26 12:44:35;;;;;;;;;;;20.90;51.10;;;;;;6157457;23;19936;-96
2023/04/26 12:47:00;;;;;;;;;;;21.20;51.70;;;;;;6156992;23;20220;-94
2023/04/26 12:49:28;;;;;;;;;;;21.50;48.90;;;;;;6156929;23;19939;-94
2023/04/26 12:51:54;;;;;;;;;;;21.60;50.10;;;;;;6157516;23;19912;-94
2023/04/26 12:54:19;;;;;;;;;;;21.80;49.50;;;;;;6157223;23;19905;-94
2023/04/26 12:56:45;;;;;;;;;;;21.70;50.90;;;;;;6156827;23;19905;-93
2023/04/26 12:59:10;;;;;;;;;;;21.30;49.20;;;;;;6156570;23;19913;-93
2023/04/26 13:01:48;;;;;;;;;;;20.90;50.30;;;;;;5111586;27;19912;-93
2023/04/26 13:04:13;;;;;;;;;;;20.60;52.00;;;;;;5110348;28;19994;-93
2023/04/26 13:06:39;;;;;;;;;;;20.50;51.80;;;;;;5111597;28;20313;-93
2023/04/26 13:09:07;;;;;;;;;;;21.00;51.30;;;;;;5111648;28;20406;-93
2023/04/26 13:11:32;;;;;;;;;;;21.60;48.40;;;;;;5111521;28;20287;-94
2023/04/26 13:13:58;;;;;;;;;;;21.80;47.90;;;;;;5111347;28;19908;-94
2023/04/26 13:16:24;;;;;;;;;;;21.80;49.00;;;;;;5111462;28;19908;-93
2023/04/26 13:18:49;;;;;;;;;;;21.50;47.70;;;;;;5111407;28;19908;-93
2023/04/26 13:21:15;;;;;;;;;;;21.10;49.10;;;;;;5111677;28;19920;-93
2023/04/26 13:23:41;;;;;;;;;;;20.40;52.20;;;;;;5111449;28;19908;-96
2023/04/26 13:26:06;;;;;;;;;;;20.00;52.20;;;;;;5111652;28;19908;-96
2023/04/26 13:28:32;;;;;;;;;;;19.90;52.60;;;;;;5112164;28;19919;-96
2023/04/26 13:30:58;;;;;;;;;;;19.80;53.00;;;;;;5113864;28;19908;-96
2023/04/26 13:33:23;;;;;;;;;;;19.80;53.30;;;;;;5099634;28;19958;-96
2023/04/26 13:35:49;;;;;;;;;;;19.80;50.20;;;;;;5091596;28;19920;-96
2023/04/26 13:38:15;;;;;;;;;;;19.80;51.50;;;;;;5090818;28;19991;-95
2023/04/26 13:40:40;;;;;;;;;;;19.90;54.30;;;;;;5089632;28;19919;-96
2023/04/26 13:43:06;;;;;;;;;;;20.30;54.00;;;;;;5091266;28;19915;-96
2023/04/26 13:45:31;;;;;;;;;;;21.10;51.20;;;;;;5091015;28;19916;-96
2023/04/26 13:47:57;;;;;;;;;;;21.50;46.70;;;;;;5090726;28;19947;-96
2023/04/26 13:50:22;;;;;;;;;;;21.30;48.30;;;;;;5090526;28;19912;-96
2023/04/26 13:52:49;;;;;;;;;;;21.20;50.80;;;;;;5090624;28;19946;-95
2023/04/26 13:55:15;;;;;;;;;;;20.80;49.80;;;;;;5089115;28;19908;-95
2023/04/26 13:57:41;;;;;;;;;;;20.40;52.10;;;;;;5088837;28;20363;-96
2023/04/26 14:00:07;;;;;;;;;;;20.00;51.60;;;;;;5090110;28;19920;-94
2023/04/26 14:02:33;;;;;;;;;;;19.80;52.90;;;;;;5090287;28;19978;-93
2023/04/26 14:04:59;;;;;;;;;;;19.70;52.20;;;;;;5090123;28;20359;-93
2023/04/26 14:07:25;;;;;;;;;;;19.90;50.10;;;;;;5089920;28;19908;-93
2023/04/26 14:09:50;;;;;;;;;;;20.30;49.80;;;;;;5089908;28;19915;-93
2023/04/26 14:12:16;;;;;;;;;;;20.30;49.80;;;;;;5080886;28;20391;-93
2023/04/26 14:14:41;;;;;;;;;;;20.70;50.70;;;;;;5076371;28;19908;-94
2023/04/26 14:17:07;;;;;;;;;;;21.50;47.70;;;;;;5076245;28;19908;-94
2023/04/26 14:19:32;;;;;;;;;;;22.50;46.90;;;;;;5076478;28;19944;-94
2023/04/26 14:21:58;;;;;;;;;;;23.40;45.80;;;;;;5076283;28;19908;-93